Holsbeek, Belgium
Current Conditions -  °F | °C
As of 5:20 AM on Saturday 25 Oct 2014 (Local Time) from EBBR Reporting Station
Broken Clouds Broken Clouds  
Wind Chill: 12°   Ceiling: 700
Heat Index: 12°   Visibility: 6mi
Dew Point: 10°   Wind: 10mph
Humidity: 88%   Direction: 230°SW
Pressure: 30.03"   Gusts: NA
Location:  50.92°N, 4.76°E
Report Text: EBBR 250320Z 23009KT 9999 FEW005 BKN007 12/10 Q1017 TEMPO 4000 BR
Loading
Personal Weather Stations






























Interactive Weather Map
Tropical Storm Tracking
New forecast layout! Learn more

10-Day Weather Forecast

Advertisements
Track Severe Weather on mobile